sensor_id;sensor_type;location;lat;lon;timestamp;P1;durP1;ratioP1;P2;durP2;ratioP2
38083;SDS011;23894;51.466;7.444;2022-10-31T00:00:43;13.07;;;7.18;;
38083;SDS011;23894;51.466;7.444;2022-10-31T00:02:44;13.27;;;7.18;;
38083;SDS011;23894;51.466;7.444;2022-10-31T00:06:46;13.20;;;6.72;;
38083;SDS011;23894;51.466;7.444;2022-10-31T00:10:48;11.65;;;6.68;;
38083;SDS011;23894;51.466;7.444;2022-10-31T00:12:49;13.32;;;6.78;;
38083;SDS011;23894;51.466;7.444;2022-10-31T00:14:50;11.38;;;6.75;;
38083;SDS011;23894;51.466;7.444;2022-10-31T00:16:51;11.15;;;6.65;;
38083;SDS011;23894;51.466;7.444;2022-10-31T00:21:02;13.23;;;6.55;;
38083;SDS011;23894;51.466;7.444;2022-10-31T00:23:04;13.52;;;6.90;;
38083;SDS011;23894;51.466;7.444;2022-10-31T00:25:05;12.98;;;7.32;;
38083;SDS011;23894;51.466;7.444;2022-10-31T00:29:07;12.18;;;6.13;;
38083;SDS011;23894;51.466;7.444;2022-10-31T00:33:09;15.30;;;6.60;;
38083;SDS011;23894;51.466;7.444;2022-10-31T00:37:11;10.60;;;6.80;;
38083;SDS011;23894;51.466;7.444;2022-10-31T00:39:12;12.13;;;6.95;;
38083;SDS011;23894;51.466;7.444;2022-10-31T00:43:14;12.43;;;6.50;;
38083;SDS011;23894;51.466;7.444;2022-10-31T00:47:16;17.73;;;7.47;;
38083;SDS011;23894;51.466;7.444;2022-10-31T00:49:17;11.52;;;6.85;;
38083;SDS011;23894;51.466;7.444;2022-10-31T00:51:18;11.68;;;7.18;;
38083;SDS011;23894;51.466;7.444;2022-10-31T00:53:19;11.70;;;6.45;;
38083;SDS011;23894;51.466;7.444;2022-10-31T00:55:20;13.77;;;7.25;;
38083;SDS011;23894;51.466;7.444;2022-10-31T00:59:22;11.27;;;6.72;;
38083;SDS011;23894;51.466;7.444;2022-10-31T01:03:25;10.30;;;6.20;;
38083;SDS011;23894;51.466;7.444;2022-10-31T01:05:27;12.48;;;7.32;;
38083;SDS011;23894;51.466;7.444;2022-10-31T01:09:28;12.38;;;6.95;;
38083;SDS011;23894;51.466;7.444;2022-10-31T01:11:29;14.75;;;7.07;;
38083;SDS011;23894;51.466;7.444;2022-10-31T01:15:31;14.00;;;7.03;;
38083;SDS011;23894;51.466;7.444;2022-10-31T01:17:32;15.13;;;7.70;;
38083;SDS011;23894;51.466;7.444;2022-10-31T01:21:34;11.32;;;6.95;;
38083;SDS011;23894;51.466;7.444;2022-10-31T01:25:36;13.40;;;7.00;;
38083;SDS011;23894;51.466;7.444;2022-10-31T01:29:38;11.13;;;6.15;;
38083;SDS011;23894;51.466;7.444;2022-10-31T01:31:39;12.45;;;6.68;;
38083;SDS011;23894;51.466;7.444;2022-10-31T01:33:40;13.25;;;6.93;;
38083;SDS011;23894;51.466;7.444;2022-10-31T01:37:42;13.65;;;6.40;;
38083;SDS011;23894;51.466;7.444;2022-10-31T01:41:48;15.60;;;6.75;;
38083;SDS011;23894;51.466;7.444;2022-10-31T01:43:56;12.13;;;6.57;;
38083;SDS011;23894;51.466;7.444;2022-10-31T01:45:58;11.57;;;7.25;;
38083;SDS011;23894;51.466;7.444;2022-10-31T01:50:00;11.77;;;6.47;;
38083;SDS011;23894;51.466;7.444;2022-10-31T01:54:06;12.65;;;7.38;;
38083;SDS011;23894;51.466;7.444;2022-10-31T01:56:08;19.70;;;6.57;;
38083;SDS011;23894;51.466;7.444;2022-10-31T02:00:11;13.30;;;6.25;;
38083;SDS011;23894;51.466;7.444;2022-10-31T02:02:12;16.00;;;7.80;;
38083;SDS011;23894;51.466;7.444;2022-10-31T02:04:13;14.18;;;7.85;;
38083;SDS011;23894;51.466;7.444;2022-10-31T02:06:58;14.32;;;8.27;;
38083;SDS011;23894;51.466;7.444;2022-10-31T02:08:39;12.75;;;7.38;;
38083;SDS011;23894;51.466;7.444;2022-10-31T02:10:40;13.40;;;7.07;;
38083;SDS011;23894;51.466;7.444;2022-10-31T02:12:43;13.95;;;7.82;;
38083;SDS011;23894;51.466;7.444;2022-10-31T02:14:45;18.67;;;8.88;;
38083;SDS011;23894;51.466;7.444;2022-10-31T02:16:46;13.88;;;8.73;;
38083;SDS011;23894;51.466;7.444;2022-10-31T02:18:47;15.60;;;7.72;;
38083;SDS011;23894;51.466;7.444;2022-10-31T02:33:52;15.40;;;8.68;;
38083;SDS011;23894;51.466;7.444;2022-10-31T02:38:05;13.45;;;7.55;;
38083;SDS011;23894;51.466;7.444;2022-10-31T02:42:27;11.57;;;7.70;;
38083;SDS011;23894;51.466;7.444;2022-10-31T02:44:34;13.88;;;8.07;;
38083;SDS011;23894;51.466;7.444;2022-10-31T02:48:44;14.57;;;8.38;;
38083;SDS011;23894;51.466;7.444;2022-10-31T02:50:47;15.15;;;7.90;;
38083;SDS011;23894;51.466;7.444;2022-10-31T02:52:51;15.88;;;7.32;;
38083;SDS011;23894;51.466;7.444;2022-10-31T02:54:52;14.25;;;8.00;;
38083;SDS011;23894;51.466;7.444;2022-10-31T02:57:02;13.48;;;8.68;;
38083;SDS011;23894;51.466;7.444;2022-10-31T02:59:04;14.02;;;7.97;;
38083;SDS011;23894;51.466;7.444;2022-10-31T03:07:47;14.02;;;7.50;;
38083;SDS011;23894;51.466;7.444;2022-10-31T03:10:03;14.82;;;7.97;;
38083;SDS011;23894;51.466;7.444;2022-10-31T03:14:10;13.93;;;8.00;;
38083;SDS011;23894;51.466;7.444;2022-10-31T03:20:13;19.17;;;8.27;;
38083;SDS011;23894;51.466;7.444;2022-10-31T03:22:17;14.70;;;8.38;;
38083;SDS011;23894;51.466;7.444;2022-10-31T03:24:18;14.35;;;8.00;;
38083;SDS011;23894;51.466;7.444;2022-10-31T03:26:20;13.70;;;7.90;;
38083;SDS011;23894;51.466;7.444;2022-10-31T03:28:23;12.63;;;7.30;;
38083;SDS011;23894;51.466;7.444;2022-10-31T03:30:26;10.82;;;6.75;;
38083;SDS011;23894;51.466;7.444;2022-10-31T03:32:27;14.48;;;7.22;;
38083;SDS011;23894;51.466;7.444;2022-10-31T03:34:30;13.10;;;7.28;;
38083;SDS011;23894;51.466;7.444;2022-10-31T03:36:32;14.63;;;6.50;;
38083;SDS011;23894;51.466;7.444;2022-10-31T03:38:34;14.05;;;7.35;;
38083;SDS011;23894;51.466;7.444;2022-10-31T03:40:36;12.30;;;7.55;;
38083;SDS011;23894;51.466;7.444;2022-10-31T03:42:40;12.75;;;7.10;;
38083;SDS011;23894;51.466;7.444;2022-10-31T03:44:42;13.93;;;7.60;;
38083;SDS011;23894;51.466;7.444;2022-10-31T03:46:44;13.50;;;7.85;;
38083;SDS011;23894;51.466;7.444;2022-10-31T03:48:46;13.23;;;8.20;;
38083;SDS011;23894;51.466;7.444;2022-10-31T03:54:53;12.70;;;8.43;;
38083;SDS011;23894;51.466;7.444;2022-10-31T03:57:00;16.67;;;8.27;;
38083;SDS011;23894;51.466;7.444;2022-10-31T03:59:06;14.65;;;8.90;;
38083;SDS011;23894;51.466;7.444;2022-10-31T04:01:09;15.43;;;8.90;;
38083;SDS011;23894;51.466;7.444;2022-10-31T04:03:14;16.67;;;8.60;;
38083;SDS011;23894;51.466;7.444;2022-10-31T04:05:16;18.30;;;9.55;;
38083;SDS011;23894;51.466;7.444;2022-10-31T04:07:18;15.52;;;9.88;;
38083;SDS011;23894;51.466;7.444;2022-10-31T04:09:21;14.30;;;8.65;;
38083;SDS011;23894;51.466;7.444;2022-10-31T04:11:23;11.63;;;7.32;;
38083;SDS011;23894;51.466;7.444;2022-10-31T04:13:27;16.02;;;8.30;;
38083;SDS011;23894;51.466;7.444;2022-10-31T04:15:29;16.38;;;8.95;;
38083;SDS011;23894;51.466;7.444;2022-10-31T04:17:31;14.85;;;8.48;;
38083;SDS011;23894;51.466;7.444;2022-10-31T04:19:33;15.20;;;8.35;;
38083;SDS011;23894;51.466;7.444;2022-10-31T04:21:34;14.73;;;9.20;;
38083;SDS011;23894;51.466;7.444;2022-10-31T04:23:35;17.35;;;8.38;;
38083;SDS011;23894;51.466;7.444;2022-10-31T04:25:36;15.85;;;9.02;;
38083;SDS011;23894;51.466;7.444;2022-10-31T04:27:37;14.85;;;9.50;;
38083;SDS011;23894;51.466;7.444;2022-10-31T04:31:39;13.77;;;9.02;;
38083;SDS011;23894;51.466;7.444;2022-10-31T04:33:40;16.55;;;8.75;;
38083;SDS011;23894;51.466;7.444;2022-10-31T04:35:41;17.05;;;9.00;;
38083;SDS011;23894;51.466;7.444;2022-10-31T04:37:42;13.77;;;9.32;;
38083;SDS011;23894;51.466;7.444;2022-10-31T04:39:43;17.42;;;8.50;;
38083;SDS011;23894;51.466;7.444;2022-10-31T04:41:44;16.88;;;10.00;;
38083;SDS011;23894;51.466;7.444;2022-10-31T04:43:45;16.90;;;8.68;;
38083;SDS011;23894;51.466;7.444;2022-10-31T04:47:47;15.77;;;8.00;;
38083;SDS011;23894;51.466;7.444;2022-10-31T04:51:49;10.35;;;6.13;;
38083;SDS011;23894;51.466;7.444;2022-10-31T04:53:50;12.90;;;6.90;;
38083;SDS011;23894;51.466;7.444;2022-10-31T04:55:51;14.23;;;7.45;;
38083;SDS011;23894;51.466;7.444;2022-10-31T04:57:52;12.85;;;8.55;;
38083;SDS011;23894;51.466;7.444;2022-10-31T05:01:54;13.43;;;7.90;;
38083;SDS011;23894;51.466;7.444;2022-10-31T05:03:55;13.18;;;8.50;;
38083;SDS011;23894;51.466;7.444;2022-10-31T05:05:56;12.40;;;8.00;;
38083;SDS011;23894;51.466;7.444;2022-10-31T05:07:57;14.75;;;8.05;;
38083;SDS011;23894;51.466;7.444;2022-10-31T05:09:58;13.57;;;8.50;;
38083;SDS011;23894;51.466;7.444;2022-10-31T05:11:59;15.02;;;8.65;;
38083;SDS011;23894;51.466;7.444;2022-10-31T05:14:00;16.15;;;9.27;;
38083;SDS011;23894;51.466;7.444;2022-10-31T05:16:01;14.65;;;8.98;;
38083;SDS011;23894;51.466;7.444;2022-10-31T05:18:03;17.58;;;9.85;;
38083;SDS011;23894;51.466;7.444;2022-10-31T05:22:05;17.80;;;10.10;;
38083;SDS011;23894;51.466;7.444;2022-10-31T05:24:06;15.95;;;10.05;;
38083;SDS011;23894;51.466;7.444;2022-10-31T05:26:07;17.55;;;9.43;;
38083;SDS011;23894;51.466;7.444;2022-10-31T05:28:08;21.33;;;10.45;;
38083;SDS011;23894;51.466;7.444;2022-10-31T05:32:10;20.88;;;11.52;;
38083;SDS011;23894;51.466;7.444;2022-10-31T05:34:11;20.88;;;10.93;;
38083;SDS011;23894;51.466;7.444;2022-10-31T05:36:12;17.23;;;10.13;;
38083;SDS011;23894;51.466;7.444;2022-10-31T05:40:17;17.88;;;9.38;;
38083;SDS011;23894;51.466;7.444;2022-10-31T05:42:19;13.65;;;9.98;;
38083;SDS011;23894;51.466;7.444;2022-10-31T05:44:20;15.85;;;11.15;;
38083;SDS011;23894;51.466;7.444;2022-10-31T05:48:22;16.52;;;9.90;;
38083;SDS011;23894;51.466;7.444;2022-10-31T05:50:23;17.70;;;10.15;;
38083;SDS011;23894;51.466;7.444;2022-10-31T05:52:24;15.73;;;10.48;;
38083;SDS011;23894;51.466;7.444;2022-10-31T05:54:25;18.08;;;10.70;;
38083;SDS011;23894;51.466;7.444;2022-10-31T05:56:26;16.77;;;10.43;;
38083;SDS011;23894;51.466;7.444;2022-10-31T05:58:27;17.67;;;10.45;;
38083;SDS011;23894;51.466;7.444;2022-10-31T06:00:28;17.35;;;11.27;;
38083;SDS011;23894;51.466;7.444;2022-10-31T06:02:29;18.15;;;10.95;;
38083;SDS011;23894;51.466;7.444;2022-10-31T06:04:34;17.15;;;10.45;;
38083;SDS011;23894;51.466;7.444;2022-10-31T06:06:35;15.93;;;10.20;;
38083;SDS011;23894;51.466;7.444;2022-10-31T06:10:37;15.15;;;9.82;;
38083;SDS011;23894;51.466;7.444;2022-10-31T06:12:38;16.98;;;10.57;;
38083;SDS011;23894;51.466;7.444;2022-10-31T06:14:40;18.60;;;11.00;;
38083;SDS011;23894;51.466;7.444;2022-10-31T06:16:41;16.30;;;10.27;;
38083;SDS011;23894;51.466;7.444;2022-10-31T06:18:42;17.67;;;10.40;;
38083;SDS011;23894;51.466;7.444;2022-10-31T06:20:43;17.45;;;10.35;;
38083;SDS011;23894;51.466;7.444;2022-10-31T06:24:45;17.83;;;9.85;;
38083;SDS011;23894;51.466;7.444;2022-10-31T06:26:46;20.23;;;10.02;;
38083;SDS011;23894;51.466;7.444;2022-10-31T06:28:47;16.88;;;10.68;;
38083;SDS011;23894;51.466;7.444;2022-10-31T06:30:48;15.05;;;10.27;;
38083;SDS011;23894;51.466;7.444;2022-10-31T06:34:50;17.52;;;9.70;;
38083;SDS011;23894;51.466;7.444;2022-10-31T06:38:52;15.45;;;10.27;;
38083;SDS011;23894;51.466;7.444;2022-10-31T06:40:53;14.73;;;10.65;;
38083;SDS011;23894;51.466;7.444;2022-10-31T06:43:00;18.10;;;10.18;;
38083;SDS011;23894;51.466;7.444;2022-10-31T06:45:01;19.83;;;10.40;;
38083;SDS011;23894;51.466;7.444;2022-10-31T06:47:02;15.70;;;10.82;;
38083;SDS011;23894;51.466;7.444;2022-10-31T06:51:04;13.93;;;9.57;;
38083;SDS011;23894;51.466;7.444;2022-10-31T06:55:06;12.15;;;8.60;;
38083;SDS011;23894;51.466;7.444;2022-10-31T06:59:08;18.55;;;9.50;;
38083;SDS011;23894;51.466;7.444;2022-10-31T07:01:09;14.70;;;9.73;;
38083;SDS011;23894;51.466;7.444;2022-10-31T07:03:11;16.85;;;11.07;;
38083;SDS011;23894;51.466;7.444;2022-10-31T07:05:12;20.02;;;10.85;;
38083;SDS011;23894;51.466;7.444;2022-10-31T07:07:13;21.58;;;11.50;;
38083;SDS011;23894;51.466;7.444;2022-10-31T07:09:14;18.95;;;11.20;;
38083;SDS011;23894;51.466;7.444;2022-10-31T07:11:15;16.45;;;11.18;;
38083;SDS011;23894;51.466;7.444;2022-10-31T07:13:16;24.05;;;11.88;;
38083;SDS011;23894;51.466;7.444;2022-10-31T07:17:18;19.60;;;11.45;;
38083;SDS011;23894;51.466;7.444;2022-10-31T07:19:19;14.65;;;10.13;;
38083;SDS011;23894;51.466;7.444;2022-10-31T07:21:20;18.27;;;10.20;;
38083;SDS011;23894;51.466;7.444;2022-10-31T07:23:21;16.77;;;10.68;;
38083;SDS011;23894;51.466;7.444;2022-10-31T07:27:23;15.57;;;9.20;;
38083;SDS011;23894;51.466;7.444;2022-10-31T07:29:24;22.42;;;11.52;;
38083;SDS011;23894;51.466;7.444;2022-10-31T07:31:25;18.98;;;11.55;;
38083;SDS011;23894;51.466;7.444;2022-10-31T07:35:28;16.70;;;10.57;;
38083;SDS011;23894;51.466;7.444;2022-10-31T07:37:29;18.13;;;11.85;;
38083;SDS011;23894;51.466;7.444;2022-10-31T07:39:30;19.60;;;11.35;;
38083;SDS011;23894;51.466;7.444;2022-10-31T07:43:32;18.10;;;10.98;;
38083;SDS011;23894;51.466;7.444;2022-10-31T07:45:33;18.50;;;11.70;;
38083;SDS011;23894;51.466;7.444;2022-10-31T07:47:40;18.52;;;10.98;;
38083;SDS011;23894;51.466;7.444;2022-10-31T07:49:41;17.17;;;11.38;;
38083;SDS011;23894;51.466;7.444;2022-10-31T07:51:42;16.80;;;11.00;;
38083;SDS011;23894;51.466;7.444;2022-10-31T07:53:43;18.02;;;11.68;;
38083;SDS011;23894;51.466;7.444;2022-10-31T07:55:44;18.20;;;11.70;;
38083;SDS011;23894;51.466;7.444;2022-10-31T07:59:46;19.30;;;12.20;;
38083;SDS011;23894;51.466;7.444;2022-10-31T08:01:47;17.13;;;10.75;;
38083;SDS011;23894;51.466;7.444;2022-10-31T08:05:49;16.52;;;10.68;;
38083;SDS011;23894;51.466;7.444;2022-10-31T08:09:51;20.40;;;11.73;;
38083;SDS011;23894;51.466;7.444;2022-10-31T08:11:52;19.35;;;11.57;;
38083;SDS011;23894;51.466;7.444;2022-10-31T08:13:53;15.65;;;10.50;;
38083;SDS011;23894;51.466;7.444;2022-10-31T08:15:54;18.58;;;11.32;;
38083;SDS011;23894;51.466;7.444;2022-10-31T08:17:55;18.48;;;11.32;;
38083;SDS011;23894;51.466;7.444;2022-10-31T08:19:56;21.25;;;11.95;;
38083;SDS011;23894;51.466;7.444;2022-10-31T08:23:58;16.40;;;10.15;;
38083;SDS011;23894;51.466;7.444;2022-10-31T08:28:00;24.25;;;12.55;;
38083;SDS011;23894;51.466;7.444;2022-10-31T08:30:02;20.05;;;12.63;;
38083;SDS011;23894;51.466;7.444;2022-10-31T08:34:04;17.40;;;10.90;;
38083;SDS011;23894;51.466;7.444;2022-10-31T08:36:05;18.10;;;11.63;;
38083;SDS011;23894;51.466;7.444;2022-10-31T08:40:07;20.92;;;11.55;;
38083;SDS011;23894;51.466;7.444;2022-10-31T08:42:08;20.55;;;12.55;;
38083;SDS011;23894;51.466;7.444;2022-10-31T08:44:09;20.55;;;12.20;;
38083;SDS011;23894;51.466;7.444;2022-10-31T08:46:10;20.85;;;12.90;;
38083;SDS011;23894;51.466;7.444;2022-10-31T08:48:13;22.13;;;13.13;;
38083;SDS011;23894;51.466;7.444;2022-10-31T08:50:14;21.00;;;13.43;;
38083;SDS011;23894;51.466;7.444;2022-10-31T08:54:16;21.42;;;13.18;;
38083;SDS011;23894;51.466;7.444;2022-10-31T08:58:18;21.50;;;14.15;;
38083;SDS011;23894;51.466;7.444;2022-10-31T09:00:19;26.83;;;15.15;;
38083;SDS011;23894;51.466;7.444;2022-10-31T09:02:20;26.98;;;16.33;;
38083;SDS011;23894;51.466;7.444;2022-10-31T09:06:22;23.13;;;15.07;;
38083;SDS011;23894;51.466;7.444;2022-10-31T09:10:25;22.27;;;13.88;;
38083;SDS011;23894;51.466;7.444;2022-10-31T09:12:26;23.27;;;15.60;;
38083;SDS011;23894;51.466;7.444;2022-10-31T09:16:28;25.63;;;15.13;;
38083;SDS011;23894;51.466;7.444;2022-10-31T09:20:32;26.60;;;15.27;;
38083;SDS011;23894;51.466;7.444;2022-10-31T09:22:33;28.58;;;16.02;;
38083;SDS011;23894;51.466;7.444;2022-10-31T09:24:34;26.45;;;16.55;;
38083;SDS011;23894;51.466;7.444;2022-10-31T09:28:36;26.40;;;16.10;;
38083;SDS011;23894;51.466;7.444;2022-10-31T09:32:38;24.65;;;15.10;;
38083;SDS011;23894;51.466;7.444;2022-10-31T09:36:40;28.33;;;16.65;;
38083;SDS011;23894;51.466;7.444;2022-10-31T09:38:42;23.73;;;15.20;;
38083;SDS011;23894;51.466;7.444;2022-10-31T09:42:53;23.98;;;14.90;;
38083;SDS011;23894;51.466;7.444;2022-10-31T09:45:15;25.30;;;15.32;;
38083;SDS011;23894;51.466;7.444;2022-10-31T09:53:31;23.13;;;12.95;;
38083;SDS011;23894;51.466;7.444;2022-10-31T09:55:44;26.70;;;14.68;;
38083;SDS011;23894;51.466;7.444;2022-10-31T09:57:46;21.48;;;13.40;;
38083;SDS011;23894;51.466;7.444;2022-10-31T09:59:48;22.08;;;13.77;;
38083;SDS011;23894;51.466;7.444;2022-10-31T10:01:55;27.08;;;14.90;;
38083;SDS011;23894;51.466;7.444;2022-10-31T10:04:23;23.75;;;15.07;;
38083;SDS011;23894;51.466;7.444;2022-10-31T10:08:19;18.83;;;12.95;;
38083;SDS011;23894;51.466;7.444;2022-10-31T10:19:18;26.17;;;15.55;;
38083;SDS011;23894;51.466;7.444;2022-10-31T10:21:29;24.80;;;14.38;;
38083;SDS011;23894;51.466;7.444;2022-10-31T10:23:40;24.08;;;14.05;;
38083;SDS011;23894;51.466;7.444;2022-10-31T10:25:44;25.02;;;14.10;;
38083;SDS011;23894;51.466;7.444;2022-10-31T10:30:03;29.33;;;14.27;;
38083;SDS011;23894;51.466;7.444;2022-10-31T10:32:10;23.30;;;14.02;;
38083;SDS011;23894;51.466;7.444;2022-10-31T10:36:19;29.35;;;16.17;;
38083;SDS011;23894;51.466;7.444;2022-10-31T10:38:27;21.10;;;13.25;;
38083;SDS011;23894;51.466;7.444;2022-10-31T10:40:29;21.42;;;13.25;;
38083;SDS011;23894;51.466;7.444;2022-10-31T10:42:30;23.23;;;13.63;;
38083;SDS011;23894;51.466;7.444;2022-10-31T10:44:50;25.55;;;13.63;;
38083;SDS011;23894;51.466;7.444;2022-10-31T10:47:10;22.60;;;12.80;;
38083;SDS011;23894;51.466;7.444;2022-10-31T10:53:54;22.10;;;11.73;;
38083;SDS011;23894;51.466;7.444;2022-10-31T10:58:35;19.45;;;12.00;;
38083;SDS011;23894;51.466;7.444;2022-10-31T11:00:47;21.00;;;11.45;;
38083;SDS011;23894;51.466;7.444;2022-10-31T11:02:55;18.92;;;11.55;;
38083;SDS011;23894;51.466;7.444;2022-10-31T11:04:57;21.23;;;11.43;;
38083;SDS011;23894;51.466;7.444;2022-10-31T11:07:03;22.42;;;11.93;;
38083;SDS011;23894;51.466;7.444;2022-10-31T11:09:08;22.08;;;12.15;;
38083;SDS011;23894;51.466;7.444;2022-10-31T11:13:21;20.40;;;11.13;;
38083;SDS011;23894;51.466;7.444;2022-10-31T11:15:24;18.33;;;9.57;;
38083;SDS011;23894;51.466;7.444;2022-10-31T11:17:47;21.02;;;10.70;;
38083;SDS011;23894;51.466;7.444;2022-10-31T11:19:47;18.98;;;10.05;;
38083;SDS011;23894;51.466;7.444;2022-10-31T11:21:48;21.75;;;10.77;;
38083;SDS011;23894;51.466;7.444;2022-10-31T11:23:49;17.40;;;9.93;;
38083;SDS011;23894;51.466;7.444;2022-10-31T11:28:09;14.32;;;8.73;;
38083;SDS011;23894;51.466;7.444;2022-10-31T11:30:12;19.85;;;9.82;;
38083;SDS011;23894;51.466;7.444;2022-10-31T11:32:17;21.92;;;9.82;;
38083;SDS011;23894;51.466;7.444;2022-10-31T11:34:33;16.92;;;8.82;;
38083;SDS011;23894;51.466;7.444;2022-10-31T11:36:36;16.10;;;8.88;;
38083;SDS011;23894;51.466;7.444;2022-10-31T11:38:42;16.48;;;8.70;;
38083;SDS011;23894;51.466;7.444;2022-10-31T11:40:54;20.05;;;9.13;;
38083;SDS011;23894;51.466;7.444;2022-10-31T11:42:56;15.27;;;9.23;;
38083;SDS011;23894;51.466;7.444;2022-10-31T11:44:59;17.98;;;8.88;;
38083;SDS011;23894;51.466;7.444;2022-10-31T11:47:01;14.93;;;8.13;;
38083;SDS011;23894;51.466;7.444;2022-10-31T11:49:03;17.90;;;8.18;;
38083;SDS011;23894;51.466;7.444;2022-10-31T11:51:05;15.07;;;8.23;;
38083;SDS011;23894;51.466;7.444;2022-10-31T11:53:14;15.48;;;8.18;;
38083;SDS011;23894;51.466;7.444;2022-10-31T11:55:17;18.70;;;8.60;;
38083;SDS011;23894;51.466;7.444;2022-10-31T11:57:33;12.13;;;6.95;;
38083;SDS011;23894;51.466;7.444;2022-10-31T11:59:50;16.75;;;7.50;;
38083;SDS011;23894;51.466;7.444;2022-10-31T12:01:52;18.23;;;7.68;;
38083;SDS011;23894;51.466;7.444;2022-10-31T12:03:54;17.83;;;7.65;;
38083;SDS011;23894;51.466;7.444;2022-10-31T12:06:03;15.00;;;7.65;;
38083;SDS011;23894;51.466;7.444;2022-10-31T12:08:07;15.23;;;7.22;;
38083;SDS011;23894;51.466;7.444;2022-10-31T12:10:10;15.07;;;7.38;;
38083;SDS011;23894;51.466;7.444;2022-10-31T12:12:19;16.85;;;7.30;;
38083;SDS011;23894;51.466;7.444;2022-10-31T12:18:52;14.18;;;7.47;;
38083;SDS011;23894;51.466;7.444;2022-10-31T12:23:16;14.70;;;7.35;;
38083;SDS011;23894;51.466;7.444;2022-10-31T12:31:39;15.77;;;8.00;;
38083;SDS011;23894;51.466;7.444;2022-10-31T12:33:57;14.77;;;7.93;;
38083;SDS011;23894;51.466;7.444;2022-10-31T12:36:11;17.25;;;7.95;;
38083;SDS011;23894;51.466;7.444;2022-10-31T12:42:41;15.52;;;8.52;;
38083;SDS011;23894;51.466;7.444;2022-10-31T12:47:12;16.27;;;7.50;;
38083;SDS011;23894;51.466;7.444;2022-10-31T12:51:43;16.25;;;8.18;;
38083;SDS011;23894;51.466;7.444;2022-10-31T12:55:59;17.92;;;8.40;;
38083;SDS011;23894;51.466;7.444;2022-10-31T12:58:02;16.40;;;8.13;;
38083;SDS011;23894;51.466;7.444;2022-10-31T13:00:10;14.45;;;7.97;;
38083;SDS011;23894;51.466;7.444;2022-10-31T13:02:21;16.65;;;7.63;;
38083;SDS011;23894;51.466;7.444;2022-10-31T13:04:29;18.40;;;8.32;;
38083;SDS011;23894;51.466;7.444;2022-10-31T13:06:36;15.10;;;8.45;;
38083;SDS011;23894;51.466;7.444;2022-10-31T13:08:40;17.05;;;8.05;;
38083;SDS011;23894;51.466;7.444;2022-10-31T13:12:44;18.33;;;8.60;;
38083;SDS011;23894;51.466;7.444;2022-10-31T13:14:48;16.75;;;7.97;;
38083;SDS011;23894;51.466;7.444;2022-10-31T13:16:49;17.17;;;7.40;;
38083;SDS011;23894;51.466;7.444;2022-10-31T13:18:58;17.77;;;7.78;;
38083;SDS011;23894;51.466;7.444;2022-10-31T13:21:03;18.48;;;8.00;;
38083;SDS011;23894;51.466;7.444;2022-10-31T13:23:27;14.60;;;8.13;;
38083;SDS011;23894;51.466;7.444;2022-10-31T13:25:30;16.80;;;7.97;;
38083;SDS011;23894;51.466;7.444;2022-10-31T13:27:44;18.92;;;8.35;;
38083;SDS011;23894;51.466;7.444;2022-10-31T13:30:31;17.55;;;8.18;;
38083;SDS011;23894;51.466;7.444;2022-10-31T13:32:07;17.95;;;8.05;;
38083;SDS011;23894;51.466;7.444;2022-10-31T13:34:18;13.43;;;8.15;;
38083;SDS011;23894;51.466;7.444;2022-10-31T13:38:30;21.23;;;8.10;;
38083;SDS011;23894;51.466;7.444;2022-10-31T13:42:59;14.90;;;7.32;;
38083;SDS011;23894;51.466;7.444;2022-10-31T13:45:34;16.38;;;6.80;;
38083;SDS011;23894;51.466;7.444;2022-10-31T13:47:28;13.45;;;7.13;;
38083;SDS011;23894;51.466;7.444;2022-10-31T13:51:31;16.88;;;7.68;;
38083;SDS011;23894;51.466;7.444;2022-10-31T13:53:38;16.80;;;6.95;;
38083;SDS011;23894;51.466;7.444;2022-10-31T13:55:41;18.42;;;7.55;;
38083;SDS011;23894;51.466;7.444;2022-10-31T13:57:43;17.52;;;7.53;;
38083;SDS011;23894;51.466;7.444;2022-10-31T14:00:04;13.35;;;7.22;;
38083;SDS011;23894;51.466;7.444;2022-10-31T14:02:16;17.88;;;6.70;;
38083;SDS011;23894;51.466;7.444;2022-10-31T14:04:18;15.90;;;7.32;;
38083;SDS011;23894;51.466;7.444;2022-10-31T14:06:20;14.20;;;7.32;;
38083;SDS011;23894;51.466;7.444;2022-10-31T14:08:23;16.20;;;7.15;;
38083;SDS011;23894;51.466;7.444;2022-10-31T14:10:25;13.55;;;7.68;;
38083;SDS011;23894;51.466;7.444;2022-10-31T14:12:36;14.65;;;6.80;;
38083;SDS011;23894;51.466;7.444;2022-10-31T14:14:43;16.88;;;7.78;;
38083;SDS011;23894;51.466;7.444;2022-10-31T14:16:45;20.67;;;7.45;;
38083;SDS011;23894;51.466;7.444;2022-10-31T14:18:48;17.48;;;7.20;;
38083;SDS011;23894;51.466;7.444;2022-10-31T14:20:49;14.13;;;7.38;;
38083;SDS011;23894;51.466;7.444;2022-10-31T14:22:51;13.57;;;7.70;;
38083;SDS011;23894;51.466;7.444;2022-10-31T14:24:52;21.33;;;7.70;;
38083;SDS011;23894;51.466;7.444;2022-10-31T14:28:55;12.65;;;7.38;;
38083;SDS011;23894;51.466;7.444;2022-10-31T14:30:57;16.25;;;7.20;;
38083;SDS011;23894;51.466;7.444;2022-10-31T14:32:59;15.40;;;7.25;;
38083;SDS011;23894;51.466;7.444;2022-10-31T14:35:00;13.40;;;7.28;;
38083;SDS011;23894;51.466;7.444;2022-10-31T14:39:24;14.18;;;7.05;;
38083;SDS011;23894;51.466;7.444;2022-10-31T14:41:34;14.95;;;7.32;;
38083;SDS011;23894;51.466;7.444;2022-10-31T14:52:13;14.40;;;7.22;;
38083;SDS011;23894;51.466;7.444;2022-10-31T14:54:17;15.82;;;6.75;;
38083;SDS011;23894;51.466;7.444;2022-10-31T14:56:21;14.52;;;6.72;;
38083;SDS011;23894;51.466;7.444;2022-10-31T14:58:57;17.17;;;7.53;;
38083;SDS011;23894;51.466;7.444;2022-10-31T15:00:53;14.95;;;6.60;;
38083;SDS011;23894;51.466;7.444;2022-10-31T15:04:55;13.43;;;7.30;;
38083;SDS011;23894;51.466;7.444;2022-10-31T15:07:13;15.68;;;7.07;;
38083;SDS011;23894;51.466;7.444;2022-10-31T15:09:23;16.10;;;8.07;;
38083;SDS011;23894;51.466;7.444;2022-10-31T15:11:25;17.50;;;8.02;;
38083;SDS011;23894;51.466;7.444;2022-10-31T15:13:27;17.00;;;8.50;;
38083;SDS011;23894;51.466;7.444;2022-10-31T15:15:28;17.45;;;9.20;;
38083;SDS011;23894;51.466;7.444;2022-10-31T15:17:30;18.20;;;9.43;;
38083;SDS011;23894;51.466;7.444;2022-10-31T15:19:32;15.13;;;8.15;;
38083;SDS011;23894;51.466;7.444;2022-10-31T15:21:41;17.75;;;7.80;;
38083;SDS011;23894;51.466;7.444;2022-10-31T15:25:45;16.95;;;7.65;;
38083;SDS011;23894;51.466;7.444;2022-10-31T15:27:47;16.48;;;7.78;;
38083;SDS011;23894;51.466;7.444;2022-10-31T15:29:52;16.70;;;7.35;;
38083;SDS011;23894;51.466;7.444;2022-10-31T15:32:00;17.20;;;8.70;;
38083;SDS011;23894;51.466;7.444;2022-10-31T15:34:05;17.13;;;8.50;;
38083;SDS011;23894;51.466;7.444;2022-10-31T15:36:18;14.30;;;7.85;;
38083;SDS011;23894;51.466;7.444;2022-10-31T15:38:19;18.85;;;7.60;;
38083;SDS011;23894;51.466;7.444;2022-10-31T15:44:30;15.80;;;7.88;;
38083;SDS011;23894;51.466;7.444;2022-10-31T15:46:31;16.27;;;7.93;;
38083;SDS011;23894;51.466;7.444;2022-10-31T15:48:33;19.55;;;10.07;;
38083;SDS011;23894;51.466;7.444;2022-10-31T15:50:36;25.27;;;9.70;;
38083;SDS011;23894;51.466;7.444;2022-10-31T15:56:40;17.05;;;7.68;;
38083;SDS011;23894;51.466;7.444;2022-10-31T15:58:45;13.55;;;7.40;;
38083;SDS011;23894;51.466;7.444;2022-10-31T16:01:01;26.13;;;10.52;;
38083;SDS011;23894;51.466;7.444;2022-10-31T16:03:08;76.72;;;31.65;;
38083;SDS011;23894;51.466;7.444;2022-10-31T16:05:15;40.65;;;18.30;;
38083;SDS011;23894;51.466;7.444;2022-10-31T16:07:17;19.92;;;9.88;;
38083;SDS011;23894;51.466;7.444;2022-10-31T16:09:20;103.20;;;41.10;;
38083;SDS011;23894;51.466;7.444;2022-10-31T16:11:31;43.53;;;18.40;;